Time;durP1;ratioP1;P1;durP2;ratioP2;P2;SDS_P1;SDS_P2;PMS_P1;PMS_P2;Temp;Humidity;BMP_temperature;BMP_pressure;BME280_temperature;BME280_humidity;BME280_pressure;Samples;Min_cycle;Max_cycle;Signal;HPM_P1;HPM_P2
2022/10/22 00:00:54;;;;;;;7.68;0.82;;;;;;;13.43;100.00;99597.28;5040738;28;20028;-51
2022/10/22 00:03:20;;;;;;;1.67;0.20;;;;;;;13.43;100.00;99597.28;5038791;28;20029;-52
2022/10/22 00:05:46;;;;;;;6.43;1.33;;;;;;;13.45;100.00;99602.34;5034931;28;20104;-54
2022/10/22 00:08:13;;;;;;;3.33;0.32;;;;;;;13.44;100.00;99611.38;5035139;28;20033;-56
2022/10/22 00:10:38;;;;;;;6.88;0.50;;;;;;;13.38;100.00;99620.31;5030593;28;20076;-58
2022/10/22 00:13:04;;;;;;;3.88;0.30;;;;;;;13.28;100.00;99623.53;5031104;28;20064;-52
2022/10/22 00:15:29;;;;;;;1.60;0.52;;;;;;;13.27;100.00;99630.72;5034351;28;20079;-51
2022/10/22 00:17:55;;;;;;;3.10;0.73;;;;;;;13.25;100.00;99637.28;5035708;28;20025;-54
2022/10/22 00:20:21;;;;;;;8.30;0.98;;;;;;;13.25;100.00;99638.06;5039479;28;20036;-55
2022/10/22 00:22:47;;;;;;;1.92;0.55;;;;;;;13.26;100.00;99653.03;5040950;28;20031;-54
2022/10/22 00:25:12;;;;;;;5.90;1.17;;;;;;;13.30;100.00;99659.53;5038230;28;20108;-56
2022/10/22 00:27:37;;;;;;;7.95;0.40;;;;;;;13.33;100.00;99662.78;5036903;28;20157;-53
2022/10/22 00:30:03;;;;;;;1.15;0.22;;;;;;;13.32;100.00;99659.31;5039431;28;20032;-54
2022/10/22 00:32:28;;;;;;;6.32;1.30;;;;;;;13.34;100.00;99662.53;5038008;28;20044;-56
2022/10/22 00:34:54;;;;;;;3.13;0.88;;;;;;;13.35;100.00;99666.03;5042848;28;20031;-52
2022/10/22 00:37:19;;;;;;;7.20;0.90;;;;;;;13.34;100.00;99665.19;5043235;28;20107;-54
2022/10/22 00:39:44;;;;;;;4.95;0.20;;;;;;;13.34;100.00;99673.19;5040710;28;20029;-55
2022/10/22 00:42:24;;;;;;;2.92;0.35;;;;;;;13.36;100.00;99670.31;5036797;28;20063;-55
2022/10/22 00:45:08;;;;;;;5.57;1.50;;;;;;;13.36;100.00;99675.63;5039879;28;20378;-58
2022/10/22 00:47:41;;;;;;;1.90;0.20;;;;;;;13.36;100.00;99681.75;5041217;28;20046;-57
2022/10/22 00:50:13;;;;;;;2.10;0.10;;;;;;;13.38;100.00;99687.69;5039199;28;20041;-56
2022/10/22 00:52:39;;;;;;;7.28;0.43;;;;;;;13.39;100.00;99699.13;5038453;28;20033;-56
2022/10/22 00:55:05;;;;;;;5.03;0.47;;;;;;;13.40;100.00;99698.91;5045405;28;20032;-55
2022/10/22 00:57:32;;;;;;;2.72;0.30;;;;;;;13.40;100.00;99704.25;5043488;28;20032;-56
2022/10/22 00:59:58;;;;;;;2.80;0.38;;;;;;;13.40;100.00;99700.75;5042877;28;20093;-55
2022/10/22 01:02:23;;;;;;;6.00;0.52;;;;;;;13.38;100.00;99702.84;5042151;28;20092;-51
2022/10/22 01:04:49;;;;;;;2.10;0.30;;;;;;;13.38;100.00;99710.84;5037356;28;20435;-56
2022/10/22 01:07:17;;;;;;;4.65;0.57;;;;;;;13.38;100.00;99708.16;5042413;28;20043;-54
2022/10/22 01:09:58;;;;;;;2.90;0.30;;;;;;;13.38;100.00;99711.63;5035891;28;20033;-54
2022/10/22 01:12:42;;;;;;;2.50;1.00;;;;;;;13.39;100.00;99718.56;5036924;28;20134;-54
2022/10/22 01:15:30;;;;;;;4.55;0.50;;;;;;;13.41;100.00;99713.03;5035943;28;20094;-55
2022/10/22 01:18:22;;;;;;;5.18;1.67;;;;;;;13.40;100.00;99727.38;5034116;28;20091;-57
2022/10/22 01:21:00;;;;;;;5.05;0.75;;;;;;;13.38;100.00;99732.13;5032060;28;20029;-55
2022/10/22 01:23:25;;;;;;;3.28;0.68;;;;;;;13.36;100.00;99734.22;5042781;28;20537;-57
2022/10/22 01:26:16;;;;;;;2.28;0.25;;;;;;;13.35;100.00;99738.72;5047519;28;20119;-55
2022/10/22 01:28:49;;;;;;;4.03;1.42;;;;;;;13.26;100.00;99737.38;5048203;28;20499;-54
2022/10/22 01:31:16;;;;;;;6.25;1.35;;;;;;;13.20;100.00;99740.97;5034501;28;20033;-59
2022/10/22 01:33:44;;;;;;;6.13;0.52;;;;;;;13.15;100.00;99749.63;5038823;28;20033;-53
2022/10/22 01:36:11;;;;;;;2.65;0.15;;;;;;;13.17;100.00;99744.88;5041430;28;20024;-52
2022/10/22 01:38:38;;;;;;;9.25;1.70;;;;;;;13.18;100.00;99751.81;5046807;28;20787;-53
2022/10/22 01:41:04;;;;;;;1.75;0.45;;;;;;;13.18;100.00;99759.81;5039301;28;20056;-54
2022/10/22 01:43:29;;;;;;;6.30;1.17;;;;;;;13.21;100.00;99756.69;5034770;28;20079;-54
2022/10/22 01:46:01;;;;;;;3.38;0.32;;;;;;;13.21;100.00;99770.00;5035834;28;20030;-59
2022/10/22 01:48:32;;;;;;;;;;;;;;;13.18;100.00;99757.13;5032950;28;20063;-58
2022/10/22 01:51:18;;;;;;;13.80;0.98;;;;;;;13.15;100.00;99765.59;5032240;28;20278;-54
2022/10/22 01:53:57;;;;;;;4.93;1.17;;;;;;;13.15;100.00;99765.59;5031743;28;20041;-52
2022/10/22 01:56:59;;;;;;;5.22;1.63;;;;;;;13.14;100.00;99777.28;5037487;28;20026;-53
2022/10/22 01:59:46;;;;;;;5.90;0.60;;;;;;;13.15;100.00;99773.56;5033104;28;20036;-57
2022/10/22 02:02:30;;;;;;;3.45;1.00;;;;;;;13.13;100.00;99772.97;5032249;28;20034;-55
2022/10/22 02:05:09;;;;;;;5.68;0.80;;;;;;;13.06;100.00;99774.91;5037640;28;20033;-52
2022/10/22 02:07:44;;;;;;;4.20;0.60;;;;;;;12.96;100.00;99777.28;5031223;28;20562;-52
2022/10/22 02:10:11;;;;;;;6.47;1.35;;;;;;;12.88;100.00;99789.88;5043148;28;20106;-55
2022/10/22 02:12:39;;;;;;;6.78;1.13;;;;;;;12.87;100.00;99782.91;5033726;28;20120;-51
2022/10/22 02:15:06;;;;;;;7.32;1.40;;;;;;;12.86;100.00;99783.16;5039994;28;20060;-51
2022/10/22 02:17:35;;;;;;;6.45;1.33;;;;;;;12.91;100.00;99790.44;5038677;28;20029;-54
2022/10/22 02:20:17;;;;;;;3.35;0.32;;;;;;;12.96;100.00;99801.22;5026114;28;20537;-56
2022/10/22 02:22:42;;;;;;;3.22;0.52;;;;;;;13.00;100.00;99789.91;5042784;28;20039;-56
2022/10/22 02:25:09;;;;;;;6.60;1.27;;;;;;;13.02;100.00;99805.69;5044382;28;20028;-57
2022/10/22 02:27:46;;;;;;;10.98;2.08;;;;;;;13.05;100.00;99805.22;5040562;28;20037;-55
2022/10/22 02:30:17;;;;;;;4.72;0.73;;;;;;;13.04;100.00;99812.41;5041280;28;20071;-52
2022/10/22 02:32:47;;;;;;;4.32;0.57;;;;;;;13.02;100.00;99803.03;5042341;28;20036;-54
2022/10/22 02:35:16;;;;;;;8.10;1.35;;;;;;;13.01;100.00;99807.53;5041087;28;20048;-52
2022/10/22 02:37:42;;;;;;;5.10;1.65;;;;;;;12.99;100.00;99814.91;5040608;28;20025;-57
2022/10/22 02:40:09;;;;;;;7.95;1.23;;;;;;;12.98;100.00;99813.28;5037821;28;20368;-58
2022/10/22 02:42:36;;;;;;;6.65;1.75;;;;;;;12.97;100.00;99814.31;5038562;28;20028;-57
2022/10/22 02:45:03;;;;;;;9.43;1.13;;;;;;;12.96;100.00;99814.53;5035144;28;20078;-57
2022/10/22 02:47:28;;;;;;;10.13;0.95;;;;;;;12.95;100.00;99820.91;5038728;28;20089;-57
2022/10/22 02:49:53;;;;;;;8.55;2.05;;;;;;;12.96;100.00;99833.16;5030162;28;20108;-58
2022/10/22 02:52:19;;;;;;;2.83;0.28;;;;;;;12.94;100.00;99829.94;5031892;28;20048;-52
2022/10/22 02:54:44;;;;;;;5.30;0.30;;;;;;;12.93;100.00;99831.75;5033312;28;20037;-56
2022/10/22 02:57:09;;;;;;;7.28;1.17;;;;;;;12.91;100.00;99838.34;5033005;28;20405;-56
2022/10/22 02:59:35;;;;;;;6.28;0.85;;;;;;;12.87;100.00;99845.97;5033933;28;20026;-51
2022/10/22 03:02:00;;;;;;;1.38;0.28;;;;;;;12.86;100.00;99845.16;5035273;28;20040;-53
2022/10/22 03:04:26;;;;;;;2.15;0.38;;;;;;;12.88;100.00;99853.72;5028589;28;20025;-53
2022/10/22 03:06:51;;;;;;;6.22;0.95;;;;;;;12.90;100.00;99858.00;5039387;28;20544;-51
2022/10/22 03:09:16;;;;;;;4.50;1.02;;;;;;;12.90;100.00;99858.81;5035020;28;20033;-51
2022/10/22 03:11:42;;;;;;;4.13;0.10;;;;;;;12.93;100.00;99870.84;5034584;28;20486;-51
2022/10/22 03:14:07;;;;;;;2.97;0.50;;;;;;;12.99;100.00;99875.31;5038105;28;20041;-52
2022/10/22 03:16:32;;;;;;;6.25;1.08;;;;;;;12.94;100.00;99875.97;5035881;28;21500;-54
2022/10/22 03:19:00;;;;;;;1.88;0.10;;;;;;;12.91;100.00;99876.41;5029655;28;20029;-52
2022/10/22 03:21:36;;;;;;;2.90;0.52;;;;;;;12.90;100.00;99876.63;5033455;28;20029;-54
2022/10/22 03:24:07;;;;;;;5.07;0.30;;;;;;;12.86;100.00;99874.41;5036646;28;20074;-58
2022/10/22 03:26:33;;;;;;;3.90;0.35;;;;;;;12.81;100.00;99881.44;5027412;28;20029;-54
2022/10/22 03:28:59;;;;;;;4.38;0.30;;;;;;;12.79;100.00;99886.97;5032397;28;20402;-56
2022/10/22 03:31:25;;;;;;;4.40;0.40;;;;;;;12.74;100.00;99878.03;5028634;28;20025;-53
2022/10/22 03:33:50;;;;;;;0.70;0.43;;;;;;;12.66;100.00;99879.91;5035151;28;20026;-58
2022/10/22 03:36:16;;;;;;;3.55;0.20;;;;;;;12.62;100.00;99886.72;5033078;28;20034;-57
2022/10/22 03:38:41;;;;;;;6.22;0.20;;;;;;;12.62;100.00;99885.88;5037170;28;20467;-53
2022/10/22 03:41:07;;;;;;;2.00;0.47;;;;;;;12.58;100.00;99898.00;5036301;28;20044;-55
2022/10/22 03:43:34;;;;;;;4.32;0.22;;;;;;;12.50;100.00;99900.97;5036362;28;20021;-56
2022/10/22 03:46:00;;;;;;;3.15;1.23;;;;;;;12.34;100.00;99897.81;5037270;28;20076;-53
2022/10/22 03:48:25;;;;;;;9.80;0.32;;;;;;;12.23;100.00;99907.25;5029334;28;20130;-54
2022/10/22 03:50:50;;;;;;;2.40;0.25;;;;;;;12.18;100.00;99908.94;5039104;28;20052;-53
2022/10/22 03:53:16;;;;;;;3.40;0.20;;;;;;;12.11;100.00;99916.19;5036479;28;20017;-57
2022/10/22 03:55:42;;;;;;;3.80;1.85;;;;;;;12.03;100.00;99927.03;5034660;28;20393;-51
2022/10/22 03:58:08;;;;;;;3.60;0.80;;;;;;;11.89;100.00;99924.47;5041219;28;20086;-51
2022/10/22 04:00:34;;;;;;;4.70;0.65;;;;;;;11.85;100.00;99930.38;5036292;28;22019;-52
2022/10/22 04:03:00;;;;;;;1.58;0.15;;;;;;;11.83;100.00;99930.59;5040669;28;20571;-52
2022/10/22 04:05:25;;;;;;;1.75;0.30;;;;;;;11.84;100.00;99942.84;5037544;28;20024;-54
2022/10/22 04:07:50;;;;;;;2.40;0.35;;;;;;;11.92;100.00;99941.81;5036947;28;20436;-55
2022/10/22 04:10:16;;;;;;;5.05;0.20;;;;;;;11.90;100.00;99942.03;5031996;28;20040;-53
2022/10/22 04:12:41;;;;;;;10.32;0.75;;;;;;;11.84;100.00;99942.84;5035948;28;20028;-52
2022/10/22 04:15:07;;;;;;;6.07;0.85;;;;;;;11.84;100.00;99956.13;5036537;28;20033;-54
2022/10/22 04:17:36;;;;;;;1.13;0.40;;;;;;;11.81;100.00;99950.44;5036627;28;20071;-53
2022/10/22 04:20:03;;;;;;;5.20;0.30;;;;;;;11.79;100.00;99963.91;5037321;28;20022;-51
2022/10/22 04:22:28;;;;;;;2.70;0.60;;;;;;;11.79;100.00;99963.91;5034218;28;20076;-54
2022/10/22 04:24:54;;;;;;;1.40;0.10;;;;;;;11.65;100.00;99962.34;5040268;28;20423;-53
2022/10/22 04:27:19;;;;;;;6.03;1.00;;;;;;;11.60;100.00;99970.13;5044411;28;20037;-51
2022/10/22 04:29:45;;;;;;;1.80;0.20;;;;;;;11.55;100.00;99968.09;5041649;28;20025;-54
2022/10/22 04:32:10;;;;;;;0.77;0.35;;;;;;;11.46;100.00;99969.34;5031384;28;20033;-52
2022/10/22 04:34:35;;;;;;;3.20;0.30;;;;;;;11.39;100.00;99974.69;5041605;28;20038;-53
2022/10/22 04:37:02;;;;;;;4.07;0.20;;;;;;;11.30;100.00;99982.03;5041613;28;20089;-57
2022/10/22 04:39:27;;;;;;;2.85;0.80;;;;;;;11.23;100.00;99986.56;5034231;28;20026;-56
2022/10/22 04:41:52;;;;;;;1.63;0.88;;;;;;;11.11;100.00;99980.25;5031848;28;20449;-56
2022/10/22 04:44:18;;;;;;;8.18;1.17;;;;;;;11.04;100.00;99985.56;5041656;28;20040;-53
2022/10/22 04:46:43;;;;;;;6.60;0.98;;;;;;;10.97;100.00;99989.25;5041625;28;20067;-52
2022/10/22 04:49:09;;;;;;;0.77;0.03;;;;;;;10.88;100.00;99991.31;5039608;28;20033;-51
2022/10/22 04:51:34;;;;;;;4.18;0.55;;;;;;;10.89;100.00;99995.56;5046520;28;20039;-51
2022/10/22 04:53:59;;;;;;;1.63;0.22;;;;;;;10.90;100.00;99991.91;5035994;28;20172;-53
2022/10/22 04:56:29;;;;;;;2.13;0.35;;;;;;;10.89;100.00;99996.41;5038195;28;20032;-52
2022/10/22 04:59:04;;;;;;;5.32;0.20;;;;;;;10.83;100.00;100005.16;5044894;28;20029;-51
2022/10/22 05:01:35;;;;;;;1.45;0.15;;;;;;;10.69;100.00;100006.19;5037278;28;20036;-55
2022/10/22 05:04:02;;;;;;;2.20;0.85;;;;;;;10.57;100.00;100015.75;5038334;28;20425;-54
2022/10/22 05:06:29;;;;;;;6.07;1.30;;;;;;;10.43;100.00;100020.25;5034103;28;20031;-51
2022/10/22 05:09:04;;;;;;;2.67;0.75;;;;;;;10.34;100.00;100021.44;5049306;28;20108;-53
2022/10/22 05:11:34;;;;;;;3.60;0.65;;;;;;;10.36;100.00;100020.22;5035322;28;20029;-51
2022/10/22 05:14:02;;;;;;;2.92;1.63;;;;;;;10.32;100.00;100024.28;5035492;28;20045;-54
2022/10/22 05:16:29;;;;;;;2.22;0.10;;;;;;;10.28;100.00;100035.50;5043376;28;20033;-53
2022/10/22 05:18:56;;;;;;;2.28;0.55;;;;;;;10.19;100.00;100034.81;5043064;28;20026;-56
2022/10/22 05:21:21;;;;;;;0.43;0.13;;;;;;;10.16;100.00;100043.97;5043570;28;20029;-51
2022/10/22 05:23:49;;;;;;;0.52;0.22;;;;;;;10.16;100.00;100049.25;5035781;28;20359;-54
2022/10/22 05:26:17;;;;;;;3.78;0.05;;;;;;;10.15;100.00;100046.84;5038547;28;20041;-55
2022/10/22 05:28:42;;;;;;;0.68;0.20;;;;;;;10.17;100.00;100040.31;5037390;28;20584;-55
2022/10/22 05:31:11;;;;;;;0.68;0.20;;;;;;;10.14;100.00;100039.88;5029492;28;20029;-56
2022/10/22 05:33:37;;;;;;;3.35;0.70;;;;;;;10.05;100.00;100049.84;5039206;28;20052;-52
2022/10/22 05:36:04;;;;;;;4.75;0.95;;;;;;;10.04;100.00;100051.69;5030534;28;20053;-51
2022/10/22 05:38:31;;;;;;;3.88;0.28;;;;;;;10.07;100.00;100052.28;5037504;28;20142;-52
2022/10/22 05:40:59;;;;;;;2.53;1.20;;;;;;;10.10;100.00;100052.72;5038662;28;20106;-54
2022/10/22 05:43:25;;;;;;;3.88;0.08;;;;;;;10.04;100.00;100061.44;5036552;28;20052;-51
2022/10/22 05:45:50;;;;;;;2.17;0.13;;;;;;;10.03;100.00;100060.63;5035436;28;20041;-52
2022/10/22 05:48:16;;;;;;;1.77;1.08;;;;;;;9.96;100.00;100067.72;5037132;28;20099;-51
2022/10/22 05:50:41;;;;;;;4.45;1.27;;;;;;;9.96;100.00;100069.56;5036030;28;20030;-54
2022/10/22 05:53:06;;;;;;;2.42;0.10;;;;;;;9.91;100.00;100061.38;5035605;28;20128;-51
2022/10/22 05:55:35;;;;;;;7.22;0.52;;;;;;;9.85;100.00;100064.84;5044691;28;20033;-51
2022/10/22 05:58:02;;;;;;;3.92;0.10;;;;;;;9.82;100.00;100080.09;5041537;28;20029;-54
2022/10/22 06:00:28;;;;;;;0.15;0.15;;;;;;;9.74;100.00;100076.78;5037649;28;20087;-48
2022/10/22 06:02:53;;;;;;;6.03;0.65;;;;;;;9.78;100.00;100086.81;5042397;28;20119;-56
2022/10/22 06:05:19;;;;;;;5.97;1.23;;;;;;;9.80;100.00;100086.59;5038125;28;20024;-49
2022/10/22 06:07:44;;;;;;;1.63;0.22;;;;;;;9.86;100.00;100087.63;5033635;28;20441;-53
2022/10/22 06:10:14;;;;;;;13.00;1.90;;;;;;;9.94;100.00;100100.72;5040077;28;20064;-52
2022/10/22 06:12:39;;;;;;;4.50;0.50;;;;;;;9.97;100.00;100103.00;5035710;28;20034;-51
2022/10/22 06:15:05;;;;;;;2.92;0.95;;;;;;;9.97;100.00;100108.28;5033745;28;20036;-50
2022/10/22 06:17:31;;;;;;;4.88;0.47;;;;;;;9.94;100.00;100111.31;5032943;28;20475;-50
2022/10/22 06:19:56;;;;;;;3.55;1.23;;;;;;;9.89;100.00;100108.47;5035134;28;20036;-52
2022/10/22 06:22:21;;;;;;;5.82;1.77;;;;;;;9.89;100.00;100124.34;5035848;28;20029;-48
2022/10/22 06:24:47;;;;;;;6.50;0.38;;;;;;;9.81;100.00;100131.44;5033485;28;20029;-52
2022/10/22 06:27:12;;;;;;;1.77;0.75;;;;;;;9.77;100.00;100126.72;5037986;28;20036;-48
2022/10/22 06:29:37;;;;;;;1.55;0.10;;;;;;;9.65;100.00;100126.41;5043522;28;20037;-48
2022/10/22 06:32:03;;;;;;;3.22;0.10;;;;;;;9.59;100.00;100137.78;5032833;28;20036;-51
2022/10/22 06:34:28;;;;;;;5.38;0.98;;;;;;;9.54;100.00;100137.53;5030105;28;20441;-53
2022/10/22 06:36:54;;;;;;;6.82;0.63;;;;;;;9.48;100.00;100143.63;5030879;28;20053;-49
2022/10/22 06:39:19;;;;;;;3.63;0.15;;;;;;;9.46;100.00;100138.50;5030336;28;20021;-52
2022/10/22 06:41:45;;;;;;;3.65;1.30;;;;;;;9.45;100.00;100147.47;5036377;28;20132;-49
2022/10/22 06:44:14;;;;;;;6.97;0.43;;;;;;;9.42;100.00;100152.31;5042701;28;20040;-50
2022/10/22 06:46:39;;;;;;;2.67;0.68;;;;;;;9.45;100.00;100160.69;5027861;28;20025;-51
2022/10/22 06:49:05;;;;;;;1.17;0.65;;;;;;;9.47;100.00;100155.19;5034730;28;20087;-54
2022/10/22 06:51:30;;;;;;;4.65;1.00;;;;;;;9.43;100.00;100170.66;5030690;28;20091;-49
2022/10/22 06:53:57;;;;;;;8.25;1.65;;;;;;;9.39;100.00;100170.19;5030644;28;20494;-54
2022/10/22 06:56:25;;;;;;;5.82;0.38;;;;;;;9.38;100.00;100175.69;5030561;28;20033;-53
2022/10/22 06:58:52;;;;;;;4.35;1.20;;;;;;;9.33;100.00;100180.72;5033523;28;20052;-49
2022/10/22 07:01:20;;;;;;;1.30;0.30;;;;;;;9.32;100.00;100189.66;5033914;28;20401;-54
2022/10/22 07:03:46;;;;;;;0.68;0.40;;;;;;;9.26;100.00;100193.88;5037924;28;20038;-49
2022/10/22 07:06:13;;;;;;;5.72;0.95;;;;;;;9.25;100.00;100194.91;5029411;28;20032;-50
2022/10/22 07:08:40;;;;;;;2.30;0.40;;;;;;;9.32;100.00;100200.25;5025523;28;20037;-52
2022/10/22 07:11:17;;;;;;;5.55;0.28;;;;;;;9.36;100.00;100209.44;5029158;28;20031;-54
2022/10/22 07:13:43;;;;;;;1.85;0.20;;;;;;;9.36;100.00;100206.81;5028495;28;20049;-52
2022/10/22 07:16:09;;;;;;;18.20;2.95;;;;;;;9.37;100.00;100211.91;5028181;28;20028;-50
2022/10/22 07:18:37;;;;;;;2.67;0.45;;;;;;;9.41;100.00;100225.59;5035461;28;20021;-53
2022/10/22 07:21:03;;;;;;;6.63;0.65;;;;;;;9.35;100.00;100227.16;5029476;28;20029;-49
2022/10/22 07:23:29;;;;;;;10.65;0.95;;;;;;;9.32;100.00;100232.84;5036041;28;20029;-53
2022/10/22 07:25:54;;;;;;;9.07;0.68;;;;;;;9.26;100.00;100238.88;5032306;28;20040;-53
2022/10/22 07:28:20;;;;;;;8.85;0.82;;;;;;;9.21;100.00;100241.25;5038199;28;20049;-54
2022/10/22 07:30:46;;;;;;;0.95;0.25;;;;;;;9.24;100.00;100245.34;5033593;28;20018;-53
2022/10/22 07:33:12;;;;;;;1.02;0.63;;;;;;;9.18;100.00;100247.75;5033816;28;20029;-53
2022/10/22 07:35:38;;;;;;;5.00;0.93;;;;;;;9.14;100.00;100245.69;5028451;28;20041;-54
2022/10/22 07:38:05;;;;;;;5.32;0.40;;;;;;;9.11;100.00;100261.91;5034409;28;20747;-51
2022/10/22 07:40:30;;;;;;;5.78;1.30;;;;;;;9.07;100.00;100256.16;5035014;28;20072;-54
2022/10/22 07:42:56;;;;;;;2.78;0.40;;;;;;;9.15;100.00;100266.63;5030177;28;20072;-55
2022/10/22 07:45:21;;;;;;;1.08;0.40;;;;;;;9.19;100.00;100275.03;5030103;28;20190;-57
2022/10/22 07:47:47;;;;;;;4.68;0.20;;;;;;;9.21;100.00;100275.66;5031576;28;20037;-51
2022/10/22 07:50:14;;;;;;;2.05;0.22;;;;;;;9.25;100.00;100278.75;5026761;28;20030;-55
2022/10/22 07:52:39;;;;;;;5.07;1.08;;;;;;;9.19;100.00;100282.97;5032956;28;20078;-50
2022/10/22 07:55:05;;;;;;;6.50;0.90;;;;;;;9.23;100.00;100283.41;5033875;28;20032;-50
2022/10/22 07:57:30;;;;;;;3.33;0.40;;;;;;;9.40;100.00;100287.47;5030984;28;20038;-50
2022/10/22 07:59:57;;;;;;;9.70;1.05;;;;;;;9.48;100.00;100289.97;5034089;28;20030;-51
2022/10/22 08:02:25;;;;;;;10.88;1.75;;;;;;;9.57;100.00;100294.13;5033620;28;20028;-54
2022/10/22 08:04:50;;;;;;;6.57;1.30;;;;;;;9.66;100.00;100299.31;5033912;28;20508;-56
2022/10/22 08:07:17;;;;;;;4.03;1.13;;;;;;;9.77;100.00;100301.44;5031957;28;20065;-52
2022/10/22 08:09:42;;;;;;;6.15;0.60;;;;;;;9.83;100.00;100295.38;5039772;28;20076;-50
2022/10/22 08:12:08;;;;;;;6.15;1.13;;;;;;;9.95;100.00;100301.00;5031020;28;20065;-52
2022/10/22 08:14:33;;;;;;;12.05;0.80;;;;;;;10.04;100.00;100303.31;5035010;28;20137;-53
2022/10/22 08:16:58;;;;;;;7.70;2.03;;;;;;;10.14;100.00;100310.09;5036007;28;20100;-50
2022/10/22 08:19:24;;;;;;;8.13;1.63;;;;;;;10.13;100.00;100314.59;5041630;28;20461;-53
2022/10/22 08:21:49;;;;;;;11.73;3.63;;;;;;;10.21;100.00;100314.44;5031109;28;20029;-56
2022/10/22 08:24:14;;;;;;;8.20;1.17;;;;;;;10.24;100.00;100318.53;5035275;28;20025;-55
2022/10/22 08:26:40;;;;;;;8.00;1.45;;;;;;;10.28;100.00;100322.50;5039553;28;20028;-51
2022/10/22 08:29:06;;;;;;;13.43;2.70;;;;;;;10.31;100.00;100331.88;5040213;28;20118;-55
2022/10/22 08:31:32;;;;;;;10.25;1.90;;;;;;;10.39;100.00;100332.53;5041089;28;20044;-55
2022/10/22 08:33:57;;;;;;;13.70;2.13;;;;;;;10.43;100.00;100330.34;5038583;28;20030;-51
2022/10/22 08:36:23;;;;;;;12.57;1.15;;;;;;;10.42;100.00;100342.75;5040454;28;20033;-51
2022/10/22 08:38:48;;;;;;;11.60;1.08;;;;;;;10.43;100.00;100335.66;5039629;28;20083;-53
2022/10/22 08:41:22;;;;;;;14.13;2.53;;;;;;;10.54;100.00;100339.59;5038992;28;20033;-54
2022/10/22 08:44:06;;;;;;;6.32;1.50;;;;;;;10.61;100.00;100338.63;5040662;28;20030;-54
2022/10/22 08:46:51;;;;;;;4.60;1.90;;;;;;;10.72;100.00;100347.03;5041413;28;20047;-56
2022/10/22 08:49:24;;;;;;;9.93;3.42;;;;;;;10.74;100.00;100339.69;5039168;28;20052;-56
2022/10/22 08:51:50;;;;;;;5.40;0.50;;;;;;;10.77;100.00;100344.63;5021329;28;20017;-51
2022/10/22 08:54:32;;;;;;;16.65;2.28;;;;;;;10.86;100.00;100340.78;5028077;28;20532;-54
2022/10/22 08:56:57;;;;;;;2.20;1.00;;;;;;;10.98;100.00;100346.38;5038176;28;20029;-53
2022/10/22 08:59:30;;;;;;;15.73;2.08;;;;;;;11.13;100.00;100358.47;5034779;28;20025;-52
2022/10/22 09:01:55;;;;;;;13.15;1.58;;;;;;;11.30;100.00;100358.13;5037195;28;20030;-52
2022/10/22 09:04:24;;;;;;;19.02;1.50;;;;;;;11.43;100.00;100362.66;5039665;28;20024;-57
2022/10/22 09:06:52;;;;;;;5.80;1.20;;;;;;;11.50;100.00;100368.81;5039156;28;20066;-56
2022/10/22 09:09:19;;;;;;;7.45;2.40;;;;;;;11.49;100.00;100356.56;5037202;28;20025;-55
2022/10/22 09:11:48;;;;;;;12.65;1.75;;;;;;;11.41;100.00;100365.53;5035232;28;20389;-52
2022/10/22 09:14:17;;;;;;;6.35;2.05;;;;;;;11.37;100.00;100371.44;5029294;28;20502;-52
2022/10/22 09:17:10;;;;;;;3.33;1.35;;;;;;;11.43;100.00;100378.59;5041766;28;20499;-52
2022/10/22 09:19:47;;;;;;;8.70;1.08;;;;;;;11.44;100.00;100373.09;5032703;28;20033;-52
2022/10/22 09:22:20;;;;;;;16.15;1.30;;;;;;;11.36;100.00;100378.59;5032450;28;20018;-53
2022/10/22 09:24:56;;;;;;;17.75;1.25;;;;;;;11.33;100.00;100374.50;5032218;28;20043;-55
2022/10/22 09:27:28;;;;;;;8.73;2.00;;;;;;;11.39;100.00;100382.69;5036107;28;20084;-53
2022/10/22 09:29:54;;;;;;;13.70;2.65;;;;;;;11.43;100.00;100389.22;5034014;28;20103;-50
2022/10/22 09:32:19;;;;;;;20.05;3.13;;;;;;;11.43;100.00;100389.22;5033530;28;20033;-55
2022/10/22 09:34:46;;;;;;;5.72;1.60;;;;;;;11.44;100.00;100389.03;5030877;28;20040;-57
2022/10/22 09:37:15;;;;;;;10.20;2.35;;;;;;;11.46;100.00;100384.34;5033212;28;20051;-51
2022/10/22 09:39:50;;;;;;;6.40;2.53;;;;;;;11.49;100.00;100385.78;5023218;28;20029;-53
2022/10/22 09:42:17;;;;;;;8.45;1.10;;;;;;;11.52;100.00;100393.34;5032550;28;20045;-49
2022/10/22 09:44:43;;;;;;;18.48;2.45;;;;;;;11.55;100.00;100391.09;5022085;28;20079;-51
2022/10/22 09:47:32;;;;;;;4.13;0.52;;;;;;;11.60;100.00;100390.50;5029791;28;20072;-53
2022/10/22 09:50:39;;;;;;;11.75;2.10;;;;;;;11.64;100.00;100397.06;5018089;28;20028;-53
2022/10/22 09:53:24;;;;;;;9.68;0.90;;;;;;;11.68;100.00;100390.31;5014086;28;20047;-49
2022/10/22 09:55:58;;;;;;;15.77;1.35;;;;;;;11.76;100.00;100392.78;5017849;28;20045;-56
2022/10/22 09:58:24;;;;;;;13.45;1.38;;;;;;;11.89;100.00;100385.91;5023835;28;20032;-56
2022/10/22 10:00:53;;;;;;;3.58;0.90;;;;;;;12.08;100.00;100387.78;5026948;28;20041;-49
2022/10/22 10:03:21;;;;;;;13.02;3.72;;;;;;;12.29;100.00;100394.75;5030094;28;20036;-52
2022/10/22 10:05:51;;;;;;;10.75;1.80;;;;;;;12.54;100.00;100399.44;5032056;28;20132;-51
2022/10/22 10:08:17;;;;;;;7.53;0.82;;;;;;;12.74;100.00;100396.75;5034698;28;20043;-50
2022/10/22 10:10:47;;;;;;;11.95;1.85;;;;;;;12.87;100.00;100392.22;5035745;28;20406;-49
2022/10/22 10:13:31;;;;;;;6.20;1.55;;;;;;;12.91;100.00;100394.44;5020965;28;20036;-51
2022/10/22 10:16:06;;;;;;;9.00;1.17;;;;;;;12.99;100.00;100389.75;5034883;28;20083;-54
2022/10/22 10:19:00;;;;;;;12.23;1.00;;;;;;;13.07;100.00;100388.69;5039747;28;20108;-49
2022/10/22 10:21:41;;;;;;;6.80;1.95;;;;;;;13.25;100.00;100380.03;5032485;28;20043;-50
2022/10/22 10:24:18;;;;;;;7.45;1.08;;;;;;;13.38;100.00;100379.19;5034538;28;20033;-54
2022/10/22 10:27:04;;;;;;;9.27;1.67;;;;;;;13.46;100.00;100378.94;5031827;28;20037;-51
2022/10/22 10:29:45;;;;;;;4.72;1.25;;;;;;;13.56;100.00;100381.16;5037411;28;20150;-51
2022/10/22 10:32:47;;;;;;;4.32;0.60;;;;;;;13.58;100.00;100385.25;5040747;28;20285;-56
2022/10/22 10:35:58;;;;;;;12.40;1.23;;;;;;;13.67;100.00;100383.13;5033482;28;20273;-55
2022/10/22 10:38:46;;;;;;;2.67;1.55;;;;;;;13.74;100.00;100381.25;5034204;28;20558;-55
2022/10/22 10:41:25;;;;;;;9.43;1.75;;;;;;;13.92;100.00;100383.19;5037117;28;20032;-54
2022/10/22 10:44:11;;;;;;;9.45;2.00;;;;;;;14.14;100.00;100381.78;5035726;28;20646;-55
2022/10/22 10:46:45;;;;;;;17.65;3.20;;;;;;;14.44;100.00;100386.50;5035659;28;20037;-52
2022/10/22 10:49:25;;;;;;;13.23;2.80;;;;;;;14.47;100.00;100380.72;5043523;28;20026;-56
2022/10/22 10:52:22;;;;;;;8.13;1.45;;;;;;;14.48;100.00;100361.03;5045607;28;20144;-51
2022/10/22 10:55:18;;;;;;;10.52;0.82;;;;;;;14.62;100.00;100367.06;5039010;28;20033;-53
2022/10/22 10:57:52;;;;;;;9.55;0.70;;;;;;;14.68;100.00;100360.03;5038406;28;20021;-51
2022/10/22 11:00:19;;;;;;;14.13;1.52;;;;;;;14.71;100.00;100364.91;5052803;28;20033;-51
2022/10/22 11:02:59;;;;;;;13.00;1.65;;;;;;;14.57;100.00;100358.91;5048158;28;20398;-54
2022/10/22 11:05:27;;;;;;;8.52;3.03;;;;;;;14.61;100.00;100363.59;5037541;28;20055;-55
2022/10/22 11:07:55;;;;;;;14.73;2.15;;;;;;;14.63;100.00;100355.34;5045985;28;20136;-53
2022/10/22 11:10:38;;;;;;;11.95;2.47;;;;;;;14.68;100.00;100354.69;5047584;28;20462;-54
2022/10/22 11:13:30;;;;;;;15.90;2.17;;;;;;;14.65;100.00;100339.13;5036902;28;20035;-50
2022/10/22 11:16:06;;;;;;;11.32;1.65;;;;;;;14.76;100.00;100343.72;5036651;28;20605;-54
2022/10/22 11:18:57;;;;;;;6.07;1.52;;;;;;;15.03;100.00;100350.41;5034905;28;20037;-55
2022/10/22 11:21:49;;;;;;;15.43;2.25;;;;;;;15.27;100.00;100348.66;5036081;28;20039;-49
2022/10/22 11:24:26;;;;;;;7.70;1.20;;;;;;;15.43;100.00;100346.41;5043377;28;20032;-50
2022/10/22 11:27:00;;;;;;;8.55;1.80;;;;;;;15.44;100.00;100332.03;5037523;28;20029;-49
2022/10/22 11:29:37;;;;;;;5.07;0.88;;;;;;;15.48;100.00;100323.31;5027810;28;20036;-52
2022/10/22 11:32:05;;;;;;;10.85;1.92;;;;;;;15.51;100.00;100322.03;5036039;28;20026;-52
2022/10/22 11:34:39;;;;;;;14.45;1.80;;;;;;;15.51;100.00;100323.91;5042201;28;20025;-49